Cross Anchor, South Carolina
Current Conditions -  °F | °C
As of 5:35 PM on Monday 20 Oct 2014 (Local Time) from KLUX Reporting Station
Scattered Clouds Scattered Clouds  
Wind Chill: 68°   Ceiling: Unl
Heat Index: 68°   Visibility: 10mi
Dew Point: 41°   Wind: 5mph
Humidity: 37%   Direction: 210°SSW
Pressure: 30.01"   Gusts: NA
Location:  34.64°N, 81.86°W
Report Text: KLUX 202135Z AUTO 21004KT 10SM SCT046 20/05 A3001 RMK AO2
Loading
Personal Weather Stations






























Interactive Weather Map
Tropical Storm Tracking
New forecast layout! Learn more

10-Day Weather Forecast

Advertisements
Track Severe Weather on mobile